Zlikha, Kazakhstan
Current Conditions -  °F | °C
As of 1:00 AM on Saturday 20 Dec 2014 (Local Time) from UAOO Reporting Station
Haze Haze  
Wind Chill: 30°   Ceiling: 4000
Heat Index: 34°   Visibility: 3mi
Dew Point: 32°   Wind: 4mph
Humidity: 93%   Direction: 130°SE
Pressure: 30.27"   Gusts: NA
Location:  45.25°N, 67.07°E
Report Text: UAOO 192000Z 13002MPS 5000 BR OVC040 01/M00 Q1025 NOSIG RMKQFE757/1010
Loading
Personal Weather Stations






























Interactive Weather Map New forecast layout! Learn more

10-Day Weather Forecast

Advertisements
Track Severe Weather on mobile